sensor_id;sensor_type;location;lat;lon;timestamp;P1;durP1;ratioP1;P2;durP2;ratioP2
9854;SDS011;4966;48.112;9.282;2023-04-01T00:01:01;2.72;;;0.55;;
9854;SDS011;4966;48.112;9.282;2023-04-01T00:03:28;4.22;;;0.80;;
9854;SDS011;4966;48.112;9.282;2023-04-01T00:05:55;1.55;;;0.60;;
9854;SDS011;4966;48.112;9.282;2023-04-01T00:08:21;4.55;;;0.77;;
9854;SDS011;4966;48.112;9.282;2023-04-01T00:10:46;3.35;;;0.68;;
9854;SDS011;4966;48.112;9.282;2023-04-01T00:13:12;2.88;;;0.63;;
9854;SDS011;4966;48.112;9.282;2023-04-01T00:15:38;2.08;;;0.43;;
9854;SDS011;4966;48.112;9.282;2023-04-01T00:18:03;1.02;;;0.30;;
9854;SDS011;4966;48.112;9.282;2023-04-01T00:20:29;4.00;;;0.40;;
9854;SDS011;4966;48.112;9.282;2023-04-01T00:22:55;1.20;;;0.38;;
9854;SDS011;4966;48.112;9.282;2023-04-01T00:25:21;3.15;;;0.50;;
9854;SDS011;4966;48.112;9.282;2023-04-01T00:27:47;1.27;;;0.50;;
9854;SDS011;4966;48.112;9.282;2023-04-01T00:30:12;2.75;;;0.40;;
9854;SDS011;4966;48.112;9.282;2023-04-01T00:32:38;0.93;;;0.40;;
9854;SDS011;4966;48.112;9.282;2023-04-01T00:35:03;1.27;;;0.22;;
9854;SDS011;4966;48.112;9.282;2023-04-01T00:37:29;2.70;;;0.30;;
9854;SDS011;4966;48.112;9.282;2023-04-01T00:39:55;1.35;;;0.30;;
9854;SDS011;4966;48.112;9.282;2023-04-01T00:42:21;1.63;;;0.32;;
9854;SDS011;4966;48.112;9.282;2023-04-01T00:44:53;1.17;;;0.45;;
9854;SDS011;4966;48.112;9.282;2023-04-01T00:47:20;1.38;;;0.10;;
9854;SDS011;4966;48.112;9.282;2023-04-01T00:49:48;2.20;;;0.50;;
9854;SDS011;4966;48.112;9.282;2023-04-01T00:52:17;1.15;;;0.32;;
9854;SDS011;4966;48.112;9.282;2023-04-01T00:54:45;5.97;;;0.30;;
9854;SDS011;4966;48.112;9.282;2023-04-01T00:57:19;1.65;;;0.32;;
9854;SDS011;4966;48.112;9.282;2023-04-01T00:59:50;1.75;;;0.43;;
9854;SDS011;4966;48.112;9.282;2023-04-01T01:02:17;1.60;;;0.40;;
9854;SDS011;4966;48.112;9.282;2023-04-01T01:04:44;2.58;;;0.38;;
9854;SDS011;4966;48.112;9.282;2023-04-01T01:29:11;2.22;;;0.40;;
9854;SDS011;4966;48.112;9.282;2023-04-01T01:37:23;1.13;;;0.35;;
9854;SDS011;4966;48.112;9.282;2023-04-01T01:42:20;0.80;;;0.40;;
9854;SDS011;4966;48.112;9.282;2023-04-01T01:44:49;0.32;;;0.10;;
9854;SDS011;4966;48.112;9.282;2023-04-01T01:47:17;1.60;;;0.30;;
9854;SDS011;4966;48.112;9.282;2023-04-01T01:49:45;0.45;;;0.13;;
9854;SDS011;4966;48.112;9.282;2023-04-01T01:52:12;0.50;;;0.10;;
9854;SDS011;4966;48.112;9.282;2023-04-01T01:54:51;1.83;;;0.28;;
9854;SDS011;4966;48.112;9.282;2023-04-01T01:57:20;0.20;;;0.10;;
9854;SDS011;4966;48.112;9.282;2023-04-01T02:00:00;1.42;;;0.13;;
9854;SDS011;4966;48.112;9.282;2023-04-01T02:02:39;1.20;;;0.10;;
9854;SDS011;4966;48.112;9.282;2023-04-01T02:05:06;0.13;;;0.10;;
9854;SDS011;4966;48.112;9.282;2023-04-01T02:07:35;1.08;;;0.10;;
9854;SDS011;4966;48.112;9.282;2023-04-01T02:10:04;1.08;;;0.10;;
9854;SDS011;4966;48.112;9.282;2023-04-01T02:12:30;1.15;;;0.10;;
9854;SDS011;4966;48.112;9.282;2023-04-01T02:15:03;0.80;;;0.13;;
9854;SDS011;4966;48.112;9.282;2023-04-01T02:17:33;2.65;;;0.28;;
9854;SDS011;4966;48.112;9.282;2023-04-01T02:20:04;0.73;;;0.20;;
9854;SDS011;4966;48.112;9.282;2023-04-01T02:22:35;1.73;;;0.30;;
9854;SDS011;4966;48.112;9.282;2023-04-01T02:25:10;0.52;;;0.10;;
9854;SDS011;4966;48.112;9.282;2023-04-01T02:27:38;1.27;;;0.30;;
9854;SDS011;4966;48.112;9.282;2023-04-01T02:30:04;1.63;;;0.10;;
9854;SDS011;4966;48.112;9.282;2023-04-01T02:32:30;1.27;;;0.22;;
9854;SDS011;4966;48.112;9.282;2023-04-01T02:34:58;1.67;;;0.13;;
9854;SDS011;4966;48.112;9.282;2023-04-01T02:37:25;0.68;;;0.15;;
9854;SDS011;4966;48.112;9.282;2023-04-01T02:39:50;1.08;;;0.30;;
9854;SDS011;4966;48.112;9.282;2023-04-01T02:42:15;0.68;;;0.10;;
9854;SDS011;4966;48.112;9.282;2023-04-01T02:44:41;1.50;;;0.20;;
9854;SDS011;4966;48.112;9.282;2023-04-01T02:47:06;0.20;;;0.10;;
9854;SDS011;4966;48.112;9.282;2023-04-01T02:49:31;1.20;;;0.13;;
9854;SDS011;4966;48.112;9.282;2023-04-01T02:51:57;0.57;;;0.20;;
9854;SDS011;4966;48.112;9.282;2023-04-01T02:54:22;2.85;;;0.10;;
9854;SDS011;4966;48.112;9.282;2023-04-01T02:56:47;0.70;;;0.17;;
9854;SDS011;4966;48.112;9.282;2023-04-01T02:59:13;1.42;;;0.30;;
9854;SDS011;4966;48.112;9.282;2023-04-01T03:01:38;0.50;;;0.22;;
9854;SDS011;4966;48.112;9.282;2023-04-01T03:04:04;2.65;;;0.38;;
9854;SDS011;4966;48.112;9.282;2023-04-01T03:06:29;0.93;;;0.35;;
9854;SDS011;4966;48.112;9.282;2023-04-01T03:08:55;1.25;;;0.30;;
9854;SDS011;4966;48.112;9.282;2023-04-01T03:11:20;1.00;;;0.40;;
9854;SDS011;4966;48.112;9.282;2023-04-01T03:13:46;0.75;;;0.32;;
9854;SDS011;4966;48.112;9.282;2023-04-01T03:16:11;0.90;;;0.30;;
9854;SDS011;4966;48.112;9.282;2023-04-01T03:18:37;0.63;;;0.20;;
9854;SDS011;4966;48.112;9.282;2023-04-01T03:21:15;0.95;;;0.20;;
9854;SDS011;4966;48.112;9.282;2023-04-01T03:23:42;10.35;;;0.20;;
9854;SDS011;4966;48.112;9.282;2023-04-01T03:26:08;1.27;;;0.17;;
9854;SDS011;4966;48.112;9.282;2023-04-01T03:28:33;0.50;;;0.30;;
9854;SDS011;4966;48.112;9.282;2023-04-01T03:30:59;2.17;;;0.20;;
9854;SDS011;4966;48.112;9.282;2023-04-01T03:33:24;1.30;;;0.10;;
9854;SDS011;4966;48.112;9.282;2023-04-01T03:35:50;0.40;;;0.13;;
9854;SDS011;4966;48.112;9.282;2023-04-01T03:38:17;1.77;;;0.20;;
9854;SDS011;4966;48.112;9.282;2023-04-01T03:40:43;0.82;;;0.20;;
9854;SDS011;4966;48.112;9.282;2023-04-01T03:43:09;1.27;;;0.10;;
9854;SDS011;4966;48.112;9.282;2023-04-01T03:45:35;0.22;;;0.10;;
9854;SDS011;4966;48.112;9.282;2023-04-01T03:48:07;0.85;;;0.13;;
9854;SDS011;4966;48.112;9.282;2023-04-01T03:50:34;2.33;;;0.50;;
9854;SDS011;4966;48.112;9.282;2023-04-01T03:53:00;4.30;;;0.40;;
9854;SDS011;4966;48.112;9.282;2023-04-01T03:55:25;0.85;;;0.15;;
9854;SDS011;4966;48.112;9.282;2023-04-01T03:57:51;2.40;;;0.35;;
9854;SDS011;4966;48.112;9.282;2023-04-01T04:00:16;3.45;;;0.20;;
9854;SDS011;4966;48.112;9.282;2023-04-01T04:02:41;2.83;;;0.30;;
9854;SDS011;4966;48.112;9.282;2023-04-01T04:05:07;1.95;;;0.50;;
9854;SDS011;4966;48.112;9.282;2023-04-01T04:07:33;0.90;;;0.28;;
9854;SDS011;4966;48.112;9.282;2023-04-01T04:10:00;1.15;;;0.30;;
9854;SDS011;4966;48.112;9.282;2023-04-01T04:12:25;2.78;;;0.70;;
9854;SDS011;4966;48.112;9.282;2023-04-01T04:14:50;0.60;;;0.30;;
9854;SDS011;4966;48.112;9.282;2023-04-01T04:17:16;1.85;;;0.20;;
9854;SDS011;4966;48.112;9.282;2023-04-01T04:19:42;0.82;;;0.30;;
9854;SDS011;4966;48.112;9.282;2023-04-01T04:22:07;1.23;;;0.35;;
9854;SDS011;4966;48.112;9.282;2023-04-01T04:24:36;2.10;;;0.40;;
9854;SDS011;4966;48.112;9.282;2023-04-01T04:27:02;3.92;;;0.50;;
9854;SDS011;4966;48.112;9.282;2023-04-01T04:29:28;2.72;;;0.47;;
9854;SDS011;4966;48.112;9.282;2023-04-01T04:31:53;1.75;;;0.30;;
9854;SDS011;4966;48.112;9.282;2023-04-01T04:34:18;2.45;;;0.70;;
9854;SDS011;4966;48.112;9.282;2023-04-01T04:36:44;1.63;;;0.30;;
9854;SDS011;4966;48.112;9.282;2023-04-01T04:39:10;2.33;;;0.20;;
9854;SDS011;4966;48.112;9.282;2023-04-01T04:41:36;6.38;;;0.50;;
9854;SDS011;4966;48.112;9.282;2023-04-01T04:44:02;2.97;;;0.30;;
9854;SDS011;4966;48.112;9.282;2023-04-01T04:46:29;1.25;;;0.20;;
9854;SDS011;4966;48.112;9.282;2023-04-01T04:48:54;2.65;;;0.50;;
9854;SDS011;4966;48.112;9.282;2023-04-01T04:51:20;4.07;;;0.40;;
9854;SDS011;4966;48.112;9.282;2023-04-01T04:53:46;2.10;;;0.55;;
9854;SDS011;4966;48.112;9.282;2023-04-01T04:56:12;3.25;;;0.88;;
9854;SDS011;4966;48.112;9.282;2023-04-01T04:58:38;2.53;;;1.00;;
9854;SDS011;4966;48.112;9.282;2023-04-01T05:01:11;9.73;;;2.45;;
9854;SDS011;4966;48.112;9.282;2023-04-01T05:03:38;4.55;;;1.60;;
9854;SDS011;4966;48.112;9.282;2023-04-01T05:06:04;2.45;;;0.55;;
9854;SDS011;4966;48.112;9.282;2023-04-01T05:08:30;2.60;;;1.40;;
9854;SDS011;4966;48.112;9.282;2023-04-01T05:10:57;2.33;;;1.05;;
9854;SDS011;4966;48.112;9.282;2023-04-01T05:13:23;3.30;;;1.33;;
9854;SDS011;4966;48.112;9.282;2023-04-01T05:15:48;2.60;;;0.73;;
9854;SDS011;4966;48.112;9.282;2023-04-01T05:18:13;1.08;;;0.40;;
9854;SDS011;4966;48.112;9.282;2023-04-01T05:20:39;2.67;;;0.50;;
9854;SDS011;4966;48.112;9.282;2023-04-01T05:23:10;2.05;;;0.60;;
9854;SDS011;4966;48.112;9.282;2023-04-01T05:25:37;1.25;;;0.50;;
9854;SDS011;4966;48.112;9.282;2023-04-01T05:28:03;1.35;;;0.57;;
9854;SDS011;4966;48.112;9.282;2023-04-01T05:30:28;2.40;;;0.60;;
9854;SDS011;4966;48.112;9.282;2023-04-01T05:32:54;0.98;;;0.45;;
9854;SDS011;4966;48.112;9.282;2023-04-01T05:35:19;2.40;;;0.50;;
9854;SDS011;4966;48.112;9.282;2023-04-01T05:37:45;1.02;;;0.35;;
9854;SDS011;4966;48.112;9.282;2023-04-01T05:40:10;1.42;;;0.30;;
9854;SDS011;4966;48.112;9.282;2023-04-01T05:42:36;1.30;;;0.32;;
9854;SDS011;4966;48.112;9.282;2023-04-01T05:45:01;1.35;;;0.20;;
9854;SDS011;4966;48.112;9.282;2023-04-01T05:47:27;0.90;;;0.10;;
9854;SDS011;4966;48.112;9.282;2023-04-01T05:49:52;1.40;;;0.80;;
9854;SDS011;4966;48.112;9.282;2023-04-01T05:52:17;1.67;;;0.28;;
9854;SDS011;4966;48.112;9.282;2023-04-01T05:54:43;2.55;;;0.22;;
9854;SDS011;4966;48.112;9.282;2023-04-01T05:57:08;0.75;;;0.38;;
9854;SDS011;4966;48.112;9.282;2023-04-01T05:59:33;2.10;;;0.20;;
9854;SDS011;4966;48.112;9.282;2023-04-01T06:02:00;1.00;;;0.20;;
9854;SDS011;4966;48.112;9.282;2023-04-01T06:04:26;1.55;;;0.52;;
9854;SDS011;4966;48.112;9.282;2023-04-01T06:06:57;0.35;;;0.10;;
9854;SDS011;4966;48.112;9.282;2023-04-01T06:09:29;1.20;;;0.25;;
9854;SDS011;4966;48.112;9.282;2023-04-01T06:17:23;0.20;;;0.10;;
9854;SDS011;4966;48.112;9.282;2023-04-01T06:20:10;0.10;;;0.10;;
9854;SDS011;4966;48.112;9.282;2023-04-01T06:25:41;1.15;;;0.30;;
9854;SDS011;4966;48.112;9.282;2023-04-01T06:29:07;0.98;;;0.55;;
9854;SDS011;4966;48.112;9.282;2023-04-01T06:34:00;2.40;;;0.30;;
9854;SDS011;4966;48.112;9.282;2023-04-01T06:50:11;1.95;;;0.60;;
9854;SDS011;4966;48.112;9.282;2023-04-01T06:55:30;0.73;;;0.40;;
9854;SDS011;4966;48.112;9.282;2023-04-01T06:58:03;0.40;;;0.20;;
9854;SDS011;4966;48.112;9.282;2023-04-01T07:00:32;0.30;;;0.22;;
9854;SDS011;4966;48.112;9.282;2023-04-01T07:05:41;1.38;;;0.57;;
9854;SDS011;4966;48.112;9.282;2023-04-01T07:08:11;1.48;;;0.60;;
9854;SDS011;4966;48.112;9.282;2023-04-01T07:13:27;7.38;;;0.60;;
9854;SDS011;4966;48.112;9.282;2023-04-01T07:15:56;2.13;;;0.43;;
9854;SDS011;4966;48.112;9.282;2023-04-01T07:21:46;0.88;;;0.25;;
9854;SDS011;4966;48.112;9.282;2023-04-01T07:24:24;2.40;;;0.57;;
9854;SDS011;4966;48.112;9.282;2023-04-01T07:26:53;2.47;;;0.35;;
9854;SDS011;4966;48.112;9.282;2023-04-01T07:29:20;0.43;;;0.20;;
9854;SDS011;4966;48.112;9.282;2023-04-01T07:32:33;2.17;;;0.75;;
9854;SDS011;4966;48.112;9.282;2023-04-01T07:37:16;1.30;;;0.35;;
9854;SDS011;4966;48.112;9.282;2023-04-01T07:58:46;3.90;;;1.10;;
9854;SDS011;4966;48.112;9.282;2023-04-01T08:06:37;1.02;;;0.50;;
9854;SDS011;4966;48.112;9.282;2023-04-01T08:09:28;1.13;;;0.43;;
9854;SDS011;4966;48.112;9.282;2023-04-01T08:20:54;1.73;;;0.50;;
9854;SDS011;4966;48.112;9.282;2023-04-01T08:23:27;1.42;;;0.60;;
9854;SDS011;4966;48.112;9.282;2023-04-01T08:28:43;2.15;;;0.45;;
9854;SDS011;4966;48.112;9.282;2023-04-01T08:33:56;1.20;;;0.20;;
9854;SDS011;4966;48.112;9.282;2023-04-01T08:36:27;0.25;;;0.10;;
9854;SDS011;4966;48.112;9.282;2023-04-01T08:42:07;2.42;;;0.50;;
9854;SDS011;4966;48.112;9.282;2023-04-01T08:50:40;0.70;;;0.28;;
9854;SDS011;4966;48.112;9.282;2023-04-01T08:56:17;3.17;;;0.30;;
9854;SDS011;4966;48.112;9.282;2023-04-01T08:58:54;2.25;;;1.23;;
9854;SDS011;4966;48.112;9.282;2023-04-01T09:07:28;1.23;;;0.10;;
9854;SDS011;4966;48.112;9.282;2023-04-01T09:18:53;2.33;;;0.60;;
9854;SDS011;4966;48.112;9.282;2023-04-01T09:41:02;0.60;;;0.20;;
9854;SDS011;4966;48.112;9.282;2023-04-01T09:52:21;1.05;;;0.68;;
9854;SDS011;4966;48.112;9.282;2023-04-01T10:00:25;0.63;;;0.30;;
9854;SDS011;4966;48.112;9.282;2023-04-01T10:11:12;1.38;;;0.68;;
9854;SDS011;4966;48.112;9.282;2023-04-01T10:22:32;0.82;;;0.32;;
9854;SDS011;4966;48.112;9.282;2023-04-01T10:47:16;0.35;;;0.20;;
9854;SDS011;4966;48.112;9.282;2023-04-01T11:06:35;3.33;;;0.90;;
9854;SDS011;4966;48.112;9.282;2023-04-01T11:09:43;2.38;;;1.10;;
9854;SDS011;4966;48.112;9.282;2023-04-01T11:18:09;1.80;;;0.63;;
9854;SDS011;4966;48.112;9.282;2023-04-01T11:38:10;1.52;;;0.60;;
9854;SDS011;4966;48.112;9.282;2023-04-01T12:14:41;1.95;;;0.60;;
9854;SDS011;4966;48.112;9.282;2023-04-01T12:23:11;0.98;;;0.50;;
9854;SDS011;4966;48.112;9.282;2023-04-01T12:34:21;1.75;;;0.63;;
9854;SDS011;4966;48.112;9.282;2023-04-01T12:37:20;1.95;;;0.80;;
9854;SDS011;4966;48.112;9.282;2023-04-01T12:42:51;0.57;;;0.30;;
9854;SDS011;4966;48.112;9.282;2023-04-01T12:48:35;1.23;;;0.35;;
9854;SDS011;4966;48.112;9.282;2023-04-01T12:51:23;3.47;;;0.35;;
9854;SDS011;4966;48.112;9.282;2023-04-01T12:56:49;1.65;;;0.38;;
9854;SDS011;4966;48.112;9.282;2023-04-01T13:02:23;0.63;;;0.20;;
9854;SDS011;4966;48.112;9.282;2023-04-01T13:05:18;0.73;;;0.25;;
9854;SDS011;4966;48.112;9.282;2023-04-01T13:10:57;2.08;;;0.50;;
9854;SDS011;4966;48.112;9.282;2023-04-01T13:16:14;1.00;;;0.40;;
9854;SDS011;4966;48.112;9.282;2023-04-01T13:24:52;1.20;;;0.40;;
9854;SDS011;4966;48.112;9.282;2023-04-01T13:30:24;1.35;;;0.30;;
9854;SDS011;4966;48.112;9.282;2023-04-01T13:35:47;1.67;;;0.40;;
9854;SDS011;4966;48.112;9.282;2023-04-01T13:44:10;1.95;;;0.30;;
9854;SDS011;4966;48.112;9.282;2023-04-01T13:54:51;0.60;;;0.30;;
9854;SDS011;4966;48.112;9.282;2023-04-01T13:57:43;0.50;;;0.30;;
9854;SDS011;4966;48.112;9.282;2023-04-01T14:16:34;0.30;;;0.10;;
9854;SDS011;4966;48.112;9.282;2023-04-01T14:27:53;0.38;;;0.20;;
9854;SDS011;4966;48.112;9.282;2023-04-01T14:40:56;1.98;;;0.95;;
9854;SDS011;4966;48.112;9.282;2023-04-01T14:43:35;1.38;;;0.70;;
9854;SDS011;4966;48.112;9.282;2023-04-01T14:49:04;0.50;;;0.30;;
9854;SDS011;4966;48.112;9.282;2023-04-01T14:51:41;0.77;;;0.30;;
9854;SDS011;4966;48.112;9.282;2023-04-01T14:59:30;4.38;;;1.90;;
9854;SDS011;4966;48.112;9.282;2023-04-01T15:01:58;1.70;;;0.77;;
9854;SDS011;4966;48.112;9.282;2023-04-01T15:21:18;1.75;;;0.70;;
9854;SDS011;4966;48.112;9.282;2023-04-01T15:24:18;2.38;;;0.40;;
9854;SDS011;4966;48.112;9.282;2023-04-01T15:32:16;1.52;;;0.60;;
9854;SDS011;4966;48.112;9.282;2023-04-01T15:40:07;2.90;;;0.93;;
9854;SDS011;4966;48.112;9.282;2023-04-01T15:43:03;1.75;;;0.70;;
9854;SDS011;4966;48.112;9.282;2023-04-01T15:59:14;1.65;;;0.73;;
9854;SDS011;4966;48.112;9.282;2023-04-01T16:02:00;2.05;;;0.90;;
9854;SDS011;4966;48.112;9.282;2023-04-01T16:04:38;1.30;;;0.50;;
9854;SDS011;4966;48.112;9.282;2023-04-01T16:15:13;3.90;;;1.15;;
9854;SDS011;4966;48.112;9.282;2023-04-01T16:28:48;2.63;;;1.05;;
9854;SDS011;4966;48.112;9.282;2023-04-01T16:36:14;1.98;;;0.73;;
9854;SDS011;4966;48.112;9.282;2023-04-01T16:38:55;2.20;;;0.60;;
9854;SDS011;4966;48.112;9.282;2023-04-01T16:41:36;1.65;;;0.80;;
9854;SDS011;4966;48.112;9.282;2023-04-01T16:44:25;1.17;;;0.57;;
9854;SDS011;4966;48.112;9.282;2023-04-01T16:46:52;1.67;;;0.82;;
9854;SDS011;4966;48.112;9.282;2023-04-01T16:49:25;1.67;;;0.68;;
9854;SDS011;4966;48.112;9.282;2023-04-01T16:54:51;1.63;;;0.55;;
9854;SDS011;4966;48.112;9.282;2023-04-01T16:57:26;1.42;;;0.47;;
9854;SDS011;4966;48.112;9.282;2023-04-01T17:00:01;0.80;;;0.40;;
9854;SDS011;4966;48.112;9.282;2023-04-01T17:02:43;2.78;;;1.10;;
9854;SDS011;4966;48.112;9.282;2023-04-01T17:05:36;2.00;;;0.80;;
9854;SDS011;4966;48.112;9.282;2023-04-01T17:27:05;10.80;;;4.13;;
9854;SDS011;4966;48.112;9.282;2023-04-01T17:29:46;5.57;;;2.22;;
9854;SDS011;4966;48.112;9.282;2023-04-01T17:40:37;9.63;;;4.00;;
9854;SDS011;4966;48.112;9.282;2023-04-01T17:43:20;10.48;;;3.63;;
9854;SDS011;4966;48.112;9.282;2023-04-01T17:45:57;5.07;;;2.17;;
9854;SDS011;4966;48.112;9.282;2023-04-01T17:48:38;13.85;;;5.72;;
9854;SDS011;4966;48.112;9.282;2023-04-01T18:02:11;7.05;;;3.42;;
9854;SDS011;4966;48.112;9.282;2023-04-01T18:05:02;7.13;;;3.45;;
9854;SDS011;4966;48.112;9.282;2023-04-01T18:07:57;8.40;;;3.80;;
9854;SDS011;4966;48.112;9.282;2023-04-01T18:22:15;5.90;;;1.60;;
9854;SDS011;4966;48.112;9.282;2023-04-01T18:24:49;4.63;;;1.30;;
9854;SDS011;4966;48.112;9.282;2023-04-01T18:29:55;3.03;;;1.45;;
9854;SDS011;4966;48.112;9.282;2023-04-01T18:37:45;3.10;;;1.40;;
9854;SDS011;4966;48.112;9.282;2023-04-01T18:40:29;3.45;;;1.95;;
9854;SDS011;4966;48.112;9.282;2023-04-01T18:45:57;5.10;;;2.97;;
9854;SDS011;4966;48.112;9.282;2023-04-01T18:51:39;3.75;;;1.70;;
9854;SDS011;4966;48.112;9.282;2023-04-01T18:56:40;2.15;;;1.20;;
9854;SDS011;4966;48.112;9.282;2023-04-01T18:59:25;3.33;;;1.75;;
9854;SDS011;4966;48.112;9.282;2023-04-01T19:04:39;2.90;;;1.90;;
9854;SDS011;4966;48.112;9.282;2023-04-01T19:08:12;1.58;;;0.80;;
9854;SDS011;4966;48.112;9.282;2023-04-01T19:10:17;3.60;;;1.02;;
9854;SDS011;4966;48.112;9.282;2023-04-01T19:15:28;2.20;;;0.90;;
9854;SDS011;4966;48.112;9.282;2023-04-01T19:20:58;3.25;;;0.95;;
9854;SDS011;4966;48.112;9.282;2023-04-01T19:40:52;4.75;;;1.00;;
9854;SDS011;4966;48.112;9.282;2023-04-01T19:46:38;2.35;;;1.05;;
9854;SDS011;4966;48.112;9.282;2023-04-01T20:03:24;4.10;;;1.55;;
9854;SDS011;4966;48.112;9.282;2023-04-01T20:07:00;3.45;;;1.30;;
9854;SDS011;4966;48.112;9.282;2023-04-01T20:12:00;4.05;;;2.00;;
9854;SDS011;4966;48.112;9.282;2023-04-01T20:14:45;3.50;;;1.23;;
9854;SDS011;4966;48.112;9.282;2023-04-01T20:17:24;3.15;;;1.42;;
9854;SDS011;4966;48.112;9.282;2023-04-01T20:19:58;3.78;;;1.17;;
9854;SDS011;4966;48.112;9.282;2023-04-01T20:22:51;2.33;;;1.00;;
9854;SDS011;4966;48.112;9.282;2023-04-01T20:25:43;2.88;;;1.30;;
9854;SDS011;4966;48.112;9.282;2023-04-01T20:30:57;5.35;;;1.17;;
9854;SDS011;4966;48.112;9.282;2023-04-01T20:50:54;2.25;;;1.00;;
9854;SDS011;4966;48.112;9.282;2023-04-01T21:01:32;1.45;;;0.80;;
9854;SDS011;4966;48.112;9.282;2023-04-01T21:04:18;2.67;;;0.77;;
9854;SDS011;4966;48.112;9.282;2023-04-01T21:09:55;1.90;;;0.70;;
9854;SDS011;4966;48.112;9.282;2023-04-01T21:18:14;3.08;;;0.85;;
9854;SDS011;4966;48.112;9.282;2023-04-01T21:20:55;1.63;;;0.70;;
9854;SDS011;4966;48.112;9.282;2023-04-01T21:26:30;1.65;;;0.70;;
9854;SDS011;4966;48.112;9.282;2023-04-01T21:37:31;1.65;;;0.68;;
9854;SDS011;4966;48.112;9.282;2023-04-01T21:40:25;0.90;;;0.50;;
9854;SDS011;4966;48.112;9.282;2023-04-01T21:48:37;2.40;;;1.17;;
9854;SDS011;4966;48.112;9.282;2023-04-01T21:59:41;1.42;;;0.70;;
9854;SDS011;4966;48.112;9.282;2023-04-01T22:05:43;1.80;;;0.43;;
9854;SDS011;4966;48.112;9.282;2023-04-01T22:26:05;9.98;;;3.65;;
9854;SDS011;4966;48.112;9.282;2023-04-01T22:28:22;7.03;;;3.67;;
9854;SDS011;4966;48.112;9.282;2023-04-01T22:30:57;3.72;;;2.22;;
9854;SDS011;4966;48.112;9.282;2023-04-01T22:33:38;1.95;;;0.90;;
9854;SDS011;4966;48.112;9.282;2023-04-01T22:44:05;5.35;;;1.80;;
9854;SDS011;4966;48.112;9.282;2023-04-01T22:47:04;4.18;;;1.50;;
9854;SDS011;4966;48.112;9.282;2023-04-01T22:49:41;4.30;;;1.80;;
9854;SDS011;4966;48.112;9.282;2023-04-01T22:52:26;2.67;;;1.27;;
9854;SDS011;4966;48.112;9.282;2023-04-01T22:55:09;3.65;;;1.30;;
9854;SDS011;4966;48.112;9.282;2023-04-01T22:57:49;3.63;;;1.52;;
9854;SDS011;4966;48.112;9.282;2023-04-01T23:05:58;2.53;;;1.27;;
9854;SDS011;4966;48.112;9.282;2023-04-01T23:11:08;2.78;;;1.33;;
9854;SDS011;4966;48.112;9.282;2023-04-01T23:13:39;2.13;;;1.00;;
9854;SDS011;4966;48.112;9.282;2023-04-01T23:16:09;3.22;;;0.98;;
9854;SDS011;4966;48.112;9.282;2023-04-01T23:18:50;2.35;;;1.10;;
9854;SDS011;4966;48.112;9.282;2023-04-01T23:24:03;2.45;;;1.00;;
9854;SDS011;4966;48.112;9.282;2023-04-01T23:26:49;2.40;;;0.82;;
9854;SDS011;4966;48.112;9.282;2023-04-01T23:29:24;1.50;;;0.80;;
9854;SDS011;4966;48.112;9.282;2023-04-01T23:32:00;3.72;;;1.00;;
9854;SDS011;4966;48.112;9.282;2023-04-01T23:34:29;4.55;;;1.17;;
9854;SDS011;4966;48.112;9.282;2023-04-01T23:37:03;1.27;;;0.70;;
9854;SDS011;4966;48.112;9.282;2023-04-01T23:39:36;1.75;;;0.65;;
9854;SDS011;4966;48.112;9.282;2023-04-01T23:42:24;3.13;;;0.90;;
9854;SDS011;4966;48.112;9.282;2023-04-01T23:44:55;1.92;;;0.80;;
9854;SDS011;4966;48.112;9.282;2023-04-01T23:49:58;1.40;;;0.50;;
9854;SDS011;4966;48.112;9.282;2023-04-01T23:52:30;1.33;;;0.70;;
9854;SDS011;4966;48.112;9.282;2023-04-01T23:55:08;1.73;;;0.80;;
